aviador You're here:

KBFW Decoded Metar

SILVER BAY in MN, USA
Report Time2018-06-24 08:55:00
UTC Time2018-06-24 09:19:46
Flight Rules vfr VFR
Wind050° at 08 Gusting to 14 kt
W.Decomp.*RWY 07: 7.5 kt HW 2.7 kt LCW
W.Rank050° ranks 2
Current wind is above 050° avg. (6.7)
Visibility9999 m
Phenomena:N/A
Clouds:Overcast 085 Hf
Expected CloudBase > 1,200 ft AGL from Temp-Dew spread
Ceiling8,500 ft
Temp11°C (ISA -2)
Dew Point08°C (82% RH)
AAT7.7°C
QNH1015 hPa
Density Alt948 ft
Elevation1,086 ft
Report Wrong Elevation
Raw Report
KBFW 240855Z AUTO 05008G14KT 10SM OVC085 11/08 A2996 RMK AO2=

Extra information for KBFW:More info

Metar Taf Metar & Taf Last 4 Metars F.Rules Stats Wind Profile Meteogram Temp Stats Airport Information Weather charts Add Link Nearby VenuesMetar ALERT Operation Metar Decoded Social comments

AIRNAV info for KBFW